CSMET LPCS-KSFO
Flight info
| Callsign | CSMET |
|---|---|
| Flight time | N/A |
| Altitude | 24000 |
| Route | BUSEN UZ22 ERPES/M090F380 DCT 41N020W 43N030W 44N035W 44N040W/M090F400 44N050W DCT CARAC/N0517F400 N30B KANNI DCT CANAL Q475 SCUPP/N0524F430 Q475 COPLY Q75 BOS Q935 WOZEE Q818 FNT J36 BAE J16 MCW J148 ONL J94 OCS J154 TCH J56 MVA MOD9 |
| Aircraft | GLF6/M-SBDE2E3FGHIJ4J5M1RWXY/LB1D1 |
Departure
| Time | 2026-05-01 09:23 |
|---|---|
| Airport | Cascais Airport (LPCS) |
Arrival
| Time | N/A |
|---|---|
| Airport | San Francisco International Airport (KSFO) |
| Time | Latitude | Longitude | Altitude | Speed | Heading |
|---|---|---|---|---|---|
| 2026-05-01 09:17 | 38.72494 | -9.35676 | 322 ft | 0 kts | 74° |
| 2026-05-01 09:19 | 38.72494 | -9.35674 | 322 ft | 1 kts | 74° |
| 2026-05-01 09:19 | 38.72497 | -9.35637 | 322 ft | 8 kts | 106° |
| 2026-05-01 09:20 | 38.72387 | -9.35587 | 319 ft | 8 kts | 163° |
| 2026-05-01 09:20 | 38.72349 | -9.35509 | 319 ft | 7 kts | 73° |
| 2026-05-01 09:21 | 38.72195 | -9.35406 | 313 ft | 18 kts | 164° |
| 2026-05-01 09:21 | 38.72073 | -9.35361 | 310 ft | 17 kts | 164° |
| 2026-05-01 09:21 | 38.71856 | -9.35280 | 304 ft | 13 kts | 152° |
| 2026-05-01 09:22 | 38.71809 | -9.35265 | 303 ft | 2 kts | 345° |
| 2026-05-01 09:22 | 38.72015 | -9.35340 | 309 ft | 67 kts | 344° |
| 2026-05-01 09:23 | 38.72701 | -9.35589 | 330 ft | 134 kts | 344° |
| 2026-05-01 09:23 | 38.74670 | -9.36708 | 1316 ft | 174 kts | 328° |
| 2026-05-01 09:24 | 38.75867 | -9.39630 | 2713 ft | 222 kts | 254° |
| 2026-05-01 09:24 | 38.75133 | -9.41489 | 3120 ft | 265 kts | 236° |
| 2026-05-01 09:24 | 38.72975 | -9.45787 | 5916 ft | 272 kts | 238° |
| 2026-05-01 09:25 | 38.70595 | -9.49156 | 8137 ft | 281 kts | 208° |
| 2026-05-01 09:25 | 38.67384 | -9.51631 | 10577 ft | 280 kts | 222° |
| 2026-05-01 09:26 | 38.66362 | -9.53776 | 11432 ft | 296 kts | 255° |
| 2026-05-01 09:26 | 38.66465 | -9.59486 | 12117 ft | 361 kts | 272° |
| 2026-05-01 09:26 | 38.66634 | -9.62749 | 12993 ft | 374 kts | 271° |
| 2026-05-01 09:27 | 38.66954 | -9.69294 | 15457 ft | 377 kts | 272° |
| 2026-05-01 09:27 | 38.67197 | -9.72604 | 16557 ft | 375 kts | 272° |
| 2026-05-01 09:27 | 38.67441 | -9.76033 | 16933 ft | 399 kts | 273° |
| 2026-05-01 09:28 | 38.67687 | -9.79486 | 18349 ft | 393 kts | 273° |
| 2026-05-01 09:28 | 38.67932 | -9.82963 | 19430 ft | 396 kts | 272° |
| 2026-05-01 09:28 | 38.68178 | -9.86484 | 20234 ft | 404 kts | 272° |
| 2026-05-01 09:28 | 38.68426 | -9.90035 | 21363 ft | 404 kts | 272° |
| 2026-05-01 09:29 | 38.68924 | -9.97234 | 23133 ft | 412 kts | 272° |
| 2026-05-01 09:29 | 38.69144 | -10.00866 | 23951 ft | 416 kts | 270° |
| 2026-05-01 09:30 | 38.69202 | -10.08268 | 25873 ft | 419 kts | 269° |
| 2026-05-01 09:30 | 38.69237 | -10.11998 | 26603 ft | 425 kts | 269° |
| 2026-05-01 09:30 | 38.69307 | -10.19543 | 28400 ft | 428 kts | 269° |
| 2026-05-01 09:31 | 38.69341 | -10.23317 | 29212 ft | 431 kts | 269° |
| 2026-05-01 09:31 | 38.69374 | -10.27022 | 31048 ft | 408 kts | 269° |
| 2026-05-01 09:31 | 38.69429 | -10.31841 | 38338 ft | 231 kts | 267° |
| 2026-05-01 09:32 | 38.69438 | -10.33984 | 38041 ft | 246 kts | 268° |
| 2026-05-01 09:32 | 38.69465 | -10.38100 | 38132 ft | 257 kts | 267° |
| 2026-05-01 09:32 | 38.69479 | -10.40408 | 38152 ft | 265 kts | 267° |
| 2026-05-01 09:33 | 38.69497 | -10.42832 | 38174 ft | 273 kts | 268° |
| 2026-05-01 09:33 | 38.69513 | -10.45288 | 38189 ft | 282 kts | 268° |
| 2026-05-01 09:33 | 38.69547 | -10.50446 | 38220 ft | 301 kts | 268° |
| 2026-05-01 09:34 | 38.69564 | -10.53164 | 38237 ft | 310 kts | 268° |
| 2026-05-01 09:34 | 38.69582 | -10.55950 | 38252 ft | 321 kts | 268° |
| 2026-05-01 09:34 | 38.69616 | -10.61765 | 38277 ft | 342 kts | 268° |
| 2026-05-01 09:35 | 38.69632 | -10.64851 | 38293 ft | 353 kts | 268° |
| 2026-05-01 09:35 | 38.70700 | -10.71186 | 38393 ft | 382 kts | 283° |
| 2026-05-01 09:35 | 38.71554 | -10.74437 | 38403 ft | 394 kts | 284° |
| 2026-05-01 09:36 | 38.72430 | -10.77802 | 38427 ft | 406 kts | 284° |
| 2026-05-01 09:36 | 38.73339 | -10.81296 | 38451 ft | 418 kts | 284° |
| 2026-05-01 09:36 | 38.74271 | -10.84882 | 38471 ft | 430 kts | 283° |
| 2026-05-01 09:36 | 38.75210 | -10.88516 | 38485 ft | 441 kts | 284° |
| 2026-05-01 09:37 | 38.76186 | -10.92287 | 38490 ft | 450 kts | 283° |
| 2026-05-01 09:37 | 38.78169 | -10.99974 | 38627 ft | 457 kts | 284° |
| 2026-05-01 09:37 | 38.79158 | -11.03816 | 38851 ft | 455 kts | 284° |
| 2026-05-01 09:38 | 38.81131 | -11.11497 | 39141 ft | 456 kts | 283° |
| 2026-05-01 09:38 | 38.82124 | -11.15379 | 39307 ft | 456 kts | 283° |
| 2026-05-01 09:38 | 38.83096 | -11.19183 | 39460 ft | 456 kts | 283° |
| 2026-05-01 09:39 | 38.85069 | -11.26917 | 39715 ft | 454 kts | 283° |
| 2026-05-01 09:39 | 38.87030 | -11.34629 | 39803 ft | 457 kts | 283° |
| 2026-05-01 09:40 | 38.89958 | -11.46190 | 40070 ft | 456 kts | 283° |
| 2026-05-01 09:41 | 38.91919 | -11.53962 | 40118 ft | 458 kts | 283° |
| 2026-05-01 09:41 | 38.94839 | -11.65585 | 40280 ft | 459 kts | 283° |
| 2026-05-01 09:42 | 38.96782 | -11.73348 | 40391 ft | 459 kts | 283° |
| 2026-05-01 09:42 | 38.98724 | -11.81135 | 40512 ft | 459 kts | 283° |
| 2026-05-01 09:43 | 39.00675 | -11.88979 | 40569 ft | 461 kts | 283° |
| 2026-05-01 09:43 | 39.02605 | -11.96766 | 40662 ft | 461 kts | 283° |
| 2026-05-01 09:44 | 39.05497 | -12.08471 | 41248 ft | 449 kts | 283° |
| 2026-05-01 09:44 | 39.06432 | -12.12281 | 41692 ft | 445 kts | 283° |
| 2026-05-01 09:45 | 39.07357 | -12.16046 | 42132 ft | 442 kts | 283° |
| 2026-05-01 09:45 | 39.09179 | -12.23478 | 43037 ft | 434 kts | 284° |
| 2026-05-01 09:45 | 39.10072 | -12.27131 | 43463 ft | 429 kts | 284° |
| 2026-05-01 09:46 | 39.10960 | -12.30769 | 43874 ft | 424 kts | 284° |
| 2026-05-01 09:46 | 39.11834 | -12.34355 | 43995 ft | 427 kts | 284° |
| 2026-05-01 09:46 | 39.13630 | -12.41739 | 44004 ft | 438 kts | 285° |
| 2026-05-01 09:47 | 39.15464 | -12.49303 | 44010 ft | 450 kts | 284° |
| 2026-05-01 09:47 | 39.17343 | -12.57079 | 43999 ft | 462 kts | 284° |
| 2026-05-01 09:48 | 39.19262 | -12.65040 | 44031 ft | 471 kts | 284° |
| 2026-05-01 09:48 | 39.21204 | -12.73128 | 44005 ft | 476 kts | 284° |
| 2026-05-01 09:49 | 39.23153 | -12.81276 | 43988 ft | 478 kts | 284° |
| 2026-05-01 09:49 | 39.25096 | -12.89427 | 44001 ft | 479 kts | 284° |
| 2026-05-01 09:50 | 39.27054 | -12.97665 | 44014 ft | 481 kts | 284° |
| 2026-05-01 09:50 | 39.28996 | -13.05869 | 43995 ft | 481 kts | 284° |
| 2026-05-01 09:51 | 39.30940 | -13.14110 | 43979 ft | 481 kts | 284° |
| 2026-05-01 09:51 | 39.32867 | -13.22311 | 43996 ft | 482 kts | 284° |
| 2026-05-01 09:52 | 39.34803 | -13.30574 | 43995 ft | 482 kts | 284° |
| 2026-05-01 09:52 | 39.36739 | -13.38867 | 43986 ft | 482 kts | 284° |
| 2026-05-01 09:53 | 39.38649 | -13.47078 | 43992 ft | 480 kts | 284° |
| 2026-05-01 09:53 | 39.40546 | -13.55265 | 43981 ft | 478 kts | 284° |
| 2026-05-01 09:54 | 39.42440 | -13.63472 | 43983 ft | 478 kts | 284° |
| 2026-05-01 09:54 | 39.44326 | -13.71668 | 43980 ft | 478 kts | 284° |
| 2026-05-01 09:55 | 39.46211 | -13.79884 | 43992 ft | 478 kts | 284° |
| 2026-05-01 09:55 | 39.47466 | -13.83847 | 43968 ft | 481 kts | 297° |
| 2026-05-01 09:55 | 39.49214 | -13.87577 | 43995 ft | 484 kts | 298° |
| 2026-05-01 09:56 | 39.52660 | -13.95046 | 43970 ft | 486 kts | 297° |
| 2026-05-01 09:56 | 39.56093 | -14.02535 | 43961 ft | 486 kts | 298° |
| 2026-05-01 09:57 | 39.59533 | -14.10061 | 43983 ft | 485 kts | 297° |
| 2026-05-01 09:57 | 39.62945 | -14.17542 | 43977 ft | 485 kts | 298° |
| 2026-05-01 09:58 | 39.66366 | -14.25062 | 43971 ft | 485 kts | 297° |
| 2026-05-01 09:58 | 39.69782 | -14.32589 | 43979 ft | 486 kts | 298° |
| 2026-05-01 09:59 | 39.73183 | -14.40106 | 43970 ft | 485 kts | 298° |
| 2026-05-01 09:59 | 39.76578 | -14.47620 | 43963 ft | 486 kts | 298° |
| 2026-05-01 10:00 | 39.80002 | -14.55220 | 43968 ft | 486 kts | 298° |
| 2026-05-01 10:00 | 39.83377 | -14.62732 | 43969 ft | 485 kts | 298° |
| 2026-05-01 10:01 | 39.86783 | -14.70328 | 43966 ft | 485 kts | 297° |
| 2026-05-01 10:01 | 39.90158 | -14.77875 | 43977 ft | 486 kts | 297° |
| 2026-05-01 10:02 | 39.93549 | -14.85474 | 43959 ft | 485 kts | 297° |
| 2026-05-01 10:02 | 39.96926 | -14.93063 | 43955 ft | 485 kts | 297° |
| 2026-05-01 10:03 | 40.00116 | -15.00763 | 43950 ft | 482 kts | 288° |
| 2026-05-01 10:03 | 40.02042 | -15.09086 | 43959 ft | 483 kts | 284° |
| 2026-05-01 10:04 | 40.03920 | -15.17495 | 43964 ft | 484 kts | 284° |
| 2026-05-01 10:04 | 40.05790 | -15.25896 | 43967 ft | 484 kts | 284° |
| 2026-05-01 10:05 | 40.07645 | -15.34262 | 43960 ft | 484 kts | 284° |
| 2026-05-01 10:05 | 40.09507 | -15.42690 | 43958 ft | 484 kts | 284° |
| 2026-05-01 10:06 | 40.11356 | -15.51093 | 43954 ft | 485 kts | 284° |
| 2026-05-01 10:06 | 40.13215 | -15.59572 | 43952 ft | 485 kts | 284° |
| 2026-05-01 10:07 | 40.15051 | -15.67986 | 43949 ft | 486 kts | 284° |
| 2026-05-01 10:07 | 40.16900 | -15.76486 | 43961 ft | 486 kts | 284° |
| 2026-05-01 10:08 | 40.19648 | -15.89186 | 43962 ft | 487 kts | 284° |
| 2026-05-01 10:09 | 40.21467 | -15.97630 | 43954 ft | 487 kts | 284° |
| 2026-05-01 10:09 | 40.23293 | -16.06141 | 43940 ft | 486 kts | 284° |
| 2026-05-01 10:10 | 40.25103 | -16.14612 | 43918 ft | 487 kts | 284° |
| 2026-05-01 10:10 | 40.27823 | -16.27401 | 43948 ft | 488 kts | 284° |
| 2026-05-01 10:11 | 40.29632 | -16.35955 | 43935 ft | 488 kts | 284° |
| 2026-05-01 10:11 | 40.31435 | -16.44506 | 43942 ft | 489 kts | 284° |
| 2026-05-01 10:12 | 40.33228 | -16.53049 | 43923 ft | 488 kts | 284° |
| 2026-05-01 10:13 | 40.35913 | -16.65908 | 43939 ft | 490 kts | 283° |
| 2026-05-01 10:13 | 40.37702 | -16.74521 | 43929 ft | 490 kts | 284° |
| 2026-05-01 10:14 | 40.40372 | -16.87437 | 43917 ft | 490 kts | 284° |
| 2026-05-01 10:14 | 40.42137 | -16.96023 | 43927 ft | 491 kts | 284° |
| 2026-05-01 10:15 | 40.43906 | -17.04663 | 43927 ft | 491 kts | 284° |
| 2026-05-01 10:15 | 40.45658 | -17.13249 | 43924 ft | 491 kts | 284° |
| 2026-05-01 10:16 | 40.47414 | -17.21899 | 43927 ft | 491 kts | 284° |
| 2026-05-01 10:17 | 40.50032 | -17.34859 | 43911 ft | 490 kts | 284° |
| 2026-05-01 10:17 | 40.52631 | -17.47803 | 43919 ft | 490 kts | 284° |
| 2026-05-01 10:18 | 40.55203 | -17.60698 | 43925 ft | 490 kts | 284° |
| 2026-05-01 10:19 | 40.56920 | -17.69348 | 43920 ft | 490 kts | 283° |
| 2026-05-01 10:19 | 40.58628 | -17.77996 | 43918 ft | 490 kts | 283° |
| 2026-05-01 10:20 | 40.61162 | -17.90891 | 43909 ft | 489 kts | 283° |
| 2026-05-01 10:20 | 40.62852 | -17.99536 | 43925 ft | 490 kts | 284° |
| 2026-05-01 10:21 | 40.65374 | -18.12507 | 43916 ft | 489 kts | 284° |
| 2026-05-01 10:22 | 40.67882 | -18.25491 | 43902 ft | 489 kts | 284° |
| 2026-05-01 10:23 | 40.70374 | -18.38481 | 43925 ft | 489 kts | 284° |
| 2026-05-01 10:23 | 40.72852 | -18.51481 | 43909 ft | 489 kts | 284° |
| 2026-05-01 10:24 | 40.76127 | -18.68792 | 43913 ft | 489 kts | 283° |
| 2026-05-01 10:25 | 40.79379 | -18.86140 | 43902 ft | 488 kts | 283° |
| 2026-05-01 10:26 | 40.80991 | -18.94797 | 43911 ft | 489 kts | 283° |
| 2026-05-01 10:27 | 40.84207 | -19.12189 | 43885 ft | 490 kts | 283° |
| 2026-05-01 10:28 | 40.86609 | -19.25276 | 43907 ft | 490 kts | 283° |
| 2026-05-01 10:28 | 40.88996 | -19.38380 | 43895 ft | 491 kts | 283° |
| 2026-05-01 10:29 | 40.91376 | -19.51532 | 43897 ft | 492 kts | 283° |
| 2026-05-01 10:30 | 40.94520 | -19.69048 | 43915 ft | 493 kts | 283° |
| 2026-05-01 10:31 | 40.97644 | -19.86624 | 43902 ft | 492 kts | 283° |
| 2026-05-01 10:32 | 40.99974 | -19.99833 | 43905 ft | 493 kts | 283° |
| 2026-05-01 10:33 | 41.04253 | -20.17015 | 43896 ft | 495 kts | 288° |
| 2026-05-01 10:34 | 41.07461 | -20.29931 | 43911 ft | 493 kts | 288° |
| 2026-05-01 10:34 | 41.09589 | -20.38544 | 43909 ft | 494 kts | 288° |
| 2026-05-01 10:35 | 41.12775 | -20.51494 | 43909 ft | 494 kts | 288° |
| 2026-05-01 10:35 | 41.14876 | -20.60079 | 43910 ft | 494 kts | 288° |
| 2026-05-01 10:36 | 41.18037 | -20.73046 | 43910 ft | 494 kts | 287° |
| 2026-05-01 10:37 | 41.20141 | -20.81720 | 43915 ft | 494 kts | 287° |
| 2026-05-01 10:37 | 41.23261 | -20.94639 | 43919 ft | 493 kts | 287° |
| 2026-05-01 10:38 | 41.25338 | -21.03283 | 43919 ft | 493 kts | 287° |
| 2026-05-01 10:38 | 41.27414 | -21.11952 | 43913 ft | 493 kts | 287° |
| 2026-05-01 10:39 | 41.29484 | -21.20630 | 43915 ft | 493 kts | 287° |
| 2026-05-01 10:39 | 41.31538 | -21.29274 | 43922 ft | 493 kts | 287° |
| 2026-05-01 10:40 | 41.33579 | -21.37897 | 43918 ft | 492 kts | 287° |
| 2026-05-01 10:40 | 41.35633 | -21.46603 | 43923 ft | 493 kts | 287° |
| 2026-05-01 10:41 | 41.37667 | -21.55263 | 43923 ft | 493 kts | 288° |
| 2026-05-01 10:42 | 41.40712 | -21.68284 | 43924 ft | 493 kts | 287° |
| 2026-05-01 10:42 | 41.42733 | -21.76972 | 43928 ft | 493 kts | 287° |
| 2026-05-01 10:43 | 41.44746 | -21.85654 | 43924 ft | 493 kts | 287° |
| 2026-05-01 10:43 | 41.46750 | -21.94335 | 43924 ft | 492 kts | 287° |
| 2026-05-01 10:44 | 41.48748 | -22.03019 | 43934 ft | 493 kts | 287° |
| 2026-05-01 10:44 | 41.50754 | -22.11776 | 43922 ft | 494 kts | 287° |
| 2026-05-01 10:45 | 41.52746 | -22.20505 | 43936 ft | 493 kts | 287° |
| 2026-05-01 10:45 | 41.54731 | -22.29236 | 43926 ft | 494 kts | 287° |
| 2026-05-01 10:46 | 41.56696 | -22.37916 | 43923 ft | 494 kts | 287° |
| 2026-05-01 10:46 | 41.58681 | -22.46716 | 43928 ft | 495 kts | 287° |
| 2026-05-01 10:47 | 41.60648 | -22.55472 | 43934 ft | 495 kts | 287° |
| 2026-05-01 10:47 | 41.62609 | -22.64236 | 43936 ft | 495 kts | 287° |
| 2026-05-01 10:48 | 41.64579 | -22.73079 | 43940 ft | 496 kts | 287° |
| 2026-05-01 10:48 | 41.66528 | -22.81858 | 43938 ft | 496 kts | 287° |
| 2026-05-01 10:49 | 41.68471 | -22.90652 | 43938 ft | 497 kts | 287° |
| 2026-05-01 10:49 | 41.70422 | -22.99512 | 43947 ft | 497 kts | 287° |
| 2026-05-01 10:50 | 41.72358 | -23.08341 | 43935 ft | 497 kts | 287° |
| 2026-05-01 10:50 | 41.74291 | -23.17193 | 43939 ft | 497 kts | 287° |
| 2026-05-01 10:51 | 41.76220 | -23.26067 | 43943 ft | 497 kts | 287° |
| 2026-05-01 10:51 | 41.78130 | -23.34886 | 43949 ft | 496 kts | 287° |
| 2026-05-01 10:52 | 41.80035 | -23.43718 | 43943 ft | 496 kts | 287° |
| 2026-05-01 10:52 | 41.81938 | -23.52580 | 43953 ft | 496 kts | 287° |
| 2026-05-01 10:53 | 41.83831 | -23.61433 | 43961 ft | 496 kts | 287° |
| 2026-05-01 10:53 | 41.85715 | -23.70278 | 43957 ft | 496 kts | 286° |
| 2026-05-01 10:54 | 41.87603 | -23.79180 | 43954 ft | 496 kts | 286° |
| 2026-05-01 10:54 | 41.89468 | -23.88010 | 43958 ft | 496 kts | 286° |
| 2026-05-01 10:55 | 41.91333 | -23.96881 | 43956 ft | 495 kts | 286° |
| 2026-05-01 10:55 | 41.93195 | -24.05770 | 43973 ft | 495 kts | 286° |
| 2026-05-01 10:56 | 41.95038 | -24.14609 | 43963 ft | 495 kts | 286° |
| 2026-05-01 10:56 | 41.96885 | -24.23506 | 43962 ft | 495 kts | 286° |
| 2026-05-01 10:57 | 41.98713 | -24.32348 | 43972 ft | 495 kts | 286° |
| 2026-05-01 10:57 | 42.00546 | -24.41254 | 43971 ft | 495 kts | 286° |
| 2026-05-01 10:58 | 42.02364 | -24.50124 | 43973 ft | 495 kts | 287° |
| 2026-05-01 10:58 | 42.04185 | -24.59049 | 43972 ft | 495 kts | 287° |
| 2026-05-01 10:59 | 42.05984 | -24.67904 | 43967 ft | 495 kts | 286° |
| 2026-05-01 10:59 | 42.07785 | -24.76805 | 43972 ft | 495 kts | 286° |
| 2026-05-01 11:00 | 42.09582 | -24.85726 | 43972 ft | 495 kts | 286° |
| 2026-05-01 11:00 | 42.11364 | -24.94615 | 43978 ft | 495 kts | 286° |
| 2026-05-01 11:01 | 42.13142 | -25.03519 | 43973 ft | 495 kts | 286° |
| 2026-05-01 11:01 | 42.14910 | -25.12415 | 43981 ft | 495 kts | 286° |
| 2026-05-01 11:02 | 42.16677 | -25.21347 | 43982 ft | 495 kts | 286° |
| 2026-05-01 11:02 | 42.18440 | -25.30299 | 43988 ft | 495 kts | 286° |
| 2026-05-01 11:03 | 42.20194 | -25.39241 | 43981 ft | 496 kts | 286° |
| 2026-05-01 11:03 | 42.21943 | -25.48200 | 43983 ft | 496 kts | 286° |
| 2026-05-01 11:04 | 42.23681 | -25.57144 | 43983 ft | 496 kts | 286° |
| 2026-05-01 11:04 | 42.25422 | -25.66146 | 43992 ft | 496 kts | 285° |
| 2026-05-01 11:05 | 42.27141 | -25.75074 | 43999 ft | 496 kts | 285° |
| 2026-05-01 11:05 | 42.28871 | -25.84101 | 43995 ft | 496 kts | 285° |
| 2026-05-01 11:06 | 42.30582 | -25.93071 | 43997 ft | 496 kts | 285° |
| 2026-05-01 11:06 | 42.32285 | -26.02040 | 44002 ft | 496 kts | 285° |
| 2026-05-01 11:07 | 42.34835 | -26.15548 | 44011 ft | 496 kts | 285° |
| 2026-05-01 11:07 | 42.36530 | -26.24577 | 44012 ft | 496 kts | 285° |
| 2026-05-01 11:08 | 42.38209 | -26.33564 | 44012 ft | 496 kts | 285° |
| 2026-05-01 11:09 | 42.40717 | -26.47072 | 44014 ft | 496 kts | 285° |
| 2026-05-01 11:09 | 42.42384 | -26.56101 | 44013 ft | 496 kts | 285° |
| 2026-05-01 11:10 | 42.44866 | -26.69627 | 44024 ft | 495 kts | 284° |
| 2026-05-01 11:10 | 42.46503 | -26.78599 | 44031 ft | 496 kts | 285° |
| 2026-05-01 11:11 | 42.48146 | -26.87652 | 44024 ft | 496 kts | 284° |
| 2026-05-01 11:11 | 42.49771 | -26.96650 | 44030 ft | 495 kts | 285° |
| 2026-05-01 11:12 | 42.51400 | -27.05711 | 44037 ft | 495 kts | 284° |
| 2026-05-01 11:12 | 42.53018 | -27.14759 | 44039 ft | 495 kts | 284° |
| 2026-05-01 11:13 | 42.54626 | -27.23788 | 44036 ft | 496 kts | 284° |
| 2026-05-01 11:13 | 42.56230 | -27.32845 | 44040 ft | 496 kts | 285° |
| 2026-05-01 11:14 | 42.57828 | -27.41914 | 44047 ft | 495 kts | 284° |
| 2026-05-01 11:14 | 42.59415 | -27.50960 | 44046 ft | 496 kts | 284° |
| 2026-05-01 11:15 | 42.60998 | -27.60033 | 44042 ft | 496 kts | 285° |
| 2026-05-01 11:15 | 42.62567 | -27.69075 | 44035 ft | 495 kts | 284° |
| 2026-05-01 11:16 | 42.64136 | -27.78154 | 44040 ft | 496 kts | 284° |
| 2026-05-01 11:16 | 42.65692 | -27.87208 | 44043 ft | 496 kts | 284° |
| 2026-05-01 11:17 | 42.67250 | -27.96317 | 44043 ft | 496 kts | 284° |
| 2026-05-01 11:17 | 42.68800 | -28.05430 | 44039 ft | 496 kts | 284° |
| 2026-05-01 11:18 | 42.70340 | -28.14528 | 44047 ft | 496 kts | 284° |
| 2026-05-01 11:18 | 42.71865 | -28.23587 | 44041 ft | 496 kts | 284° |
| 2026-05-01 11:19 | 42.73391 | -28.32700 | 44031 ft | 496 kts | 284° |
| 2026-05-01 11:19 | 42.74912 | -28.41825 | 44052 ft | 496 kts | 284° |
| 2026-05-01 11:20 | 42.76428 | -28.50977 | 44050 ft | 496 kts | 284° |
| 2026-05-01 11:20 | 42.77925 | -28.60059 | 44045 ft | 496 kts | 284° |
| 2026-05-01 11:21 | 42.79422 | -28.69182 | 44058 ft | 497 kts | 283° |
| 2026-05-01 11:21 | 42.80919 | -28.78363 | 44053 ft | 497 kts | 283° |
| 2026-05-01 11:22 | 42.82396 | -28.87466 | 44056 ft | 497 kts | 283° |
| 2026-05-01 11:22 | 42.83879 | -28.96659 | 44059 ft | 497 kts | 283° |
| 2026-05-01 11:23 | 42.85351 | -29.05827 | 44065 ft | 497 kts | 283° |
| 2026-05-01 11:23 | 42.86815 | -29.15002 | 44062 ft | 497 kts | 283° |
| 2026-05-01 11:24 | 42.88266 | -29.24143 | 44067 ft | 497 kts | 283° |
| 2026-05-01 11:25 | 42.90438 | -29.37919 | 44069 ft | 497 kts | 283° |
| 2026-05-01 11:25 | 42.92595 | -29.51715 | 44061 ft | 497 kts | 283° |
| 2026-05-01 11:26 | 42.94730 | -29.65482 | 44065 ft | 498 kts | 282° |
| 2026-05-01 11:27 | 42.96151 | -29.74713 | 44069 ft | 498 kts | 282° |
| 2026-05-01 11:27 | 42.97554 | -29.83880 | 44068 ft | 498 kts | 282° |
| 2026-05-01 11:28 | 42.98957 | -29.93101 | 44071 ft | 498 kts | 282° |
| 2026-05-01 11:28 | 43.00441 | -30.02282 | 44062 ft | 496 kts | 288° |
| 2026-05-01 11:29 | 43.03531 | -30.15716 | 44083 ft | 498 kts | 288° |
| 2026-05-01 11:30 | 43.06547 | -30.29233 | 44074 ft | 497 kts | 288° |
| 2026-05-01 11:30 | 43.08540 | -30.38214 | 44094 ft | 496 kts | 288° |
| 2026-05-01 11:31 | 43.10540 | -30.47268 | 44086 ft | 496 kts | 288° |
| 2026-05-01 11:31 | 43.12515 | -30.56243 | 44089 ft | 496 kts | 288° |
| 2026-05-01 11:32 | 43.14481 | -30.65217 | 44094 ft | 496 kts | 287° |
| 2026-05-01 11:32 | 43.16454 | -30.74260 | 44080 ft | 496 kts | 287° |
| 2026-05-01 11:33 | 43.18415 | -30.83286 | 44100 ft | 496 kts | 287° |
| 2026-05-01 11:33 | 43.20358 | -30.92266 | 44079 ft | 495 kts | 287° |
| 2026-05-01 11:34 | 43.22308 | -31.01318 | 44093 ft | 495 kts | 287° |
| 2026-05-01 11:34 | 43.24239 | -31.10326 | 44095 ft | 496 kts | 287° |
| 2026-05-01 11:35 | 43.26173 | -31.19378 | 44083 ft | 496 kts | 287° |
| 2026-05-01 11:35 | 43.28100 | -31.28442 | 44079 ft | 496 kts | 287° |
| 2026-05-01 11:36 | 43.30020 | -31.37511 | 44086 ft | 497 kts | 287° |
| 2026-05-01 11:36 | 43.31926 | -31.46556 | 44086 ft | 497 kts | 287° |
| 2026-05-01 11:37 | 43.33843 | -31.55690 | 44081 ft | 498 kts | 287° |
| 2026-05-01 11:37 | 43.35739 | -31.64764 | 44083 ft | 498 kts | 287° |
| 2026-05-01 11:38 | 43.37637 | -31.73885 | 44092 ft | 499 kts | 286° |
| 2026-05-01 11:38 | 43.39521 | -31.82984 | 44084 ft | 498 kts | 286° |
| 2026-05-01 11:39 | 43.41409 | -31.92140 | 44087 ft | 499 kts | 286° |
| 2026-05-01 11:39 | 43.43278 | -32.01249 | 44090 ft | 499 kts | 286° |
| 2026-05-01 11:40 | 43.45148 | -32.10403 | 44095 ft | 499 kts | 286° |
| 2026-05-01 11:40 | 43.47011 | -32.19562 | 44097 ft | 499 kts | 286° |
| 2026-05-01 11:41 | 43.48862 | -32.28702 | 44094 ft | 499 kts | 286° |
| 2026-05-01 11:41 | 43.50710 | -32.37872 | 44101 ft | 499 kts | 286° |
| 2026-05-01 11:42 | 43.52563 | -32.47109 | 44097 ft | 499 kts | 286° |
| 2026-05-01 11:42 | 43.54397 | -32.56290 | 44095 ft | 499 kts | 286° |
| 2026-05-01 11:43 | 43.56215 | -32.65437 | 44097 ft | 500 kts | 285° |
| 2026-05-01 11:43 | 43.58039 | -32.74653 | 44098 ft | 500 kts | 285° |
| 2026-05-01 11:44 | 43.60758 | -32.88478 | 44097 ft | 500 kts | 285° |
| 2026-05-01 11:44 | 43.62563 | -32.97710 | 44108 ft | 500 kts | 285° |
| 2026-05-01 11:45 | 43.64359 | -33.06936 | 44089 ft | 500 kts | 285° |
| 2026-05-01 11:45 | 43.66149 | -33.16175 | 44098 ft | 500 kts | 285° |
| 2026-05-01 11:46 | 43.67931 | -33.25421 | 44100 ft | 501 kts | 285° |
| 2026-05-01 11:46 | 43.69712 | -33.34702 | 44091 ft | 500 kts | 285° |
| 2026-05-01 11:47 | 43.71475 | -33.43934 | 44101 ft | 501 kts | 285° |
| 2026-05-01 11:47 | 43.73239 | -33.53220 | 44097 ft | 501 kts | 285° |
| 2026-05-01 11:48 | 43.74995 | -33.62502 | 44095 ft | 501 kts | 285° |
| 2026-05-01 11:48 | 43.76739 | -33.71770 | 44105 ft | 501 kts | 285° |
| 2026-05-01 11:49 | 43.78477 | -33.81049 | 44101 ft | 501 kts | 284° |
| 2026-05-01 11:49 | 43.80212 | -33.90359 | 44108 ft | 501 kts | 284° |
| 2026-05-01 11:50 | 43.81936 | -33.99656 | 44104 ft | 502 kts | 284° |
| 2026-05-01 11:50 | 43.83662 | -34.09010 | 44106 ft | 502 kts | 284° |
| 2026-05-01 11:51 | 43.85371 | -34.18322 | 44103 ft | 501 kts | 284° |
| 2026-05-01 11:51 | 43.87078 | -34.27659 | 44100 ft | 501 kts | 284° |
| 2026-05-01 11:52 | 43.88766 | -34.36949 | 44097 ft | 501 kts | 284° |
| 2026-05-01 11:52 | 43.90452 | -34.46273 | 44095 ft | 501 kts | 284° |
| 2026-05-01 11:53 | 43.92137 | -34.55637 | 44104 ft | 501 kts | 284° |
| 2026-05-01 11:53 | 43.93808 | -34.64972 | 44095 ft | 501 kts | 284° |
| 2026-05-01 11:54 | 43.95470 | -34.74305 | 44093 ft | 501 kts | 284° |
| 2026-05-01 11:54 | 43.97136 | -34.83706 | 44092 ft | 502 kts | 283° |
| 2026-05-01 11:55 | 43.98780 | -34.93035 | 44095 ft | 503 kts | 283° |
| 2026-05-01 11:55 | 44.00026 | -35.02619 | 44117 ft | 507 kts | 273° |
| 2026-05-01 11:56 | 44.00263 | -35.12402 | 44101 ft | 510 kts | 272° |
| 2026-05-01 11:56 | 44.00464 | -35.22215 | 44100 ft | 511 kts | 271° |
| 2026-05-01 11:57 | 44.00655 | -35.32031 | 44100 ft | 511 kts | 271° |
| 2026-05-01 11:57 | 44.00837 | -35.41833 | 44095 ft | 511 kts | 271° |
| 2026-05-01 11:58 | 44.01012 | -35.51707 | 44095 ft | 511 kts | 271° |
| 2026-05-01 11:59 | 44.01257 | -35.66445 | 44100 ft | 511 kts | 271° |
| 2026-05-01 11:59 | 44.01411 | -35.76289 | 44102 ft | 511 kts | 271° |
| 2026-05-01 12:00 | 44.01624 | -35.90988 | 44094 ft | 512 kts | 271° |
| 2026-05-01 12:01 | 44.01820 | -36.05784 | 44096 ft | 512 kts | 271° |
| 2026-05-01 12:01 | 44.01939 | -36.15605 | 44094 ft | 512 kts | 271° |
| 2026-05-01 12:02 | 44.02050 | -36.25461 | 44095 ft | 512 kts | 271° |
| 2026-05-01 12:02 | 44.02153 | -36.35305 | 44100 ft | 512 kts | 270° |
| 2026-05-01 12:03 | 44.02247 | -36.45160 | 44091 ft | 512 kts | 271° |
| 2026-05-01 12:03 | 44.02333 | -36.54992 | 44097 ft | 513 kts | 271° |
| 2026-05-01 12:04 | 44.02410 | -36.64864 | 44087 ft | 513 kts | 270° |
| 2026-05-01 12:04 | 44.02479 | -36.74725 | 44094 ft | 513 kts | 270° |
| 2026-05-01 12:05 | 44.02541 | -36.84601 | 44092 ft | 513 kts | 270° |
| 2026-05-01 12:05 | 44.02614 | -36.99424 | 44092 ft | 514 kts | 270° |
| 2026-05-01 12:06 | 44.02654 | -37.09285 | 44088 ft | 514 kts | 270° |
| 2026-05-01 12:06 | 44.02685 | -37.19154 | 44086 ft | 514 kts | 270° |
| 2026-05-01 12:07 | 44.02707 | -37.29110 | 44082 ft | 514 kts | 270° |
| 2026-05-01 12:07 | 44.02721 | -37.38970 | 44081 ft | 514 kts | 270° |
| 2026-05-01 12:08 | 44.02727 | -37.48882 | 44082 ft | 515 kts | 270° |
| 2026-05-01 12:08 | 44.02723 | -37.58780 | 44083 ft | 515 kts | 270° |
| 2026-05-01 12:09 | 44.02711 | -37.68668 | 44079 ft | 514 kts | 269° |
| 2026-05-01 12:09 | 44.02691 | -37.78571 | 44075 ft | 514 kts | 269° |
| 2026-05-01 12:10 | 44.02644 | -37.93394 | 44074 ft | 514 kts | 269° |
| 2026-05-01 12:11 | 44.02579 | -38.08190 | 44068 ft | 514 kts | 269° |
| 2026-05-01 12:11 | 44.02524 | -38.18125 | 44079 ft | 514 kts | 269° |
| 2026-05-01 12:12 | 44.02461 | -38.27995 | 44076 ft | 514 kts | 269° |
| 2026-05-01 12:12 | 44.02390 | -38.37874 | 44067 ft | 514 kts | 269° |
| 2026-05-01 12:13 | 44.02310 | -38.47734 | 44075 ft | 514 kts | 269° |
| 2026-05-01 12:13 | 44.02221 | -38.57604 | 44069 ft | 514 kts | 269° |
| 2026-05-01 12:14 | 44.02124 | -38.67514 | 44071 ft | 514 kts | 268° |
| 2026-05-01 12:14 | 44.02019 | -38.77367 | 44067 ft | 514 kts | 268° |
| 2026-05-01 12:15 | 44.01905 | -38.87265 | 44070 ft | 514 kts | 268° |
| 2026-05-01 12:15 | 44.01781 | -38.97171 | 44072 ft | 514 kts | 268° |
| 2026-05-01 12:16 | 44.01650 | -39.07067 | 44073 ft | 514 kts | 268° |
| 2026-05-01 12:16 | 44.01511 | -39.16904 | 44074 ft | 514 kts | 268° |
| 2026-05-01 12:17 | 44.01362 | -39.26819 | 44067 ft | 514 kts | 268° |
| 2026-05-01 12:17 | 44.01206 | -39.36664 | 44077 ft | 514 kts | 268° |
| 2026-05-01 12:18 | 44.01041 | -39.46559 | 44077 ft | 514 kts | 268° |
| 2026-05-01 12:18 | 44.00866 | -39.56485 | 44072 ft | 514 kts | 268° |
| 2026-05-01 12:19 | 44.00685 | -39.66329 | 44071 ft | 514 kts | 268° |
| 2026-05-01 12:19 | 44.00494 | -39.76220 | 44074 ft | 514 kts | 268° |
| 2026-05-01 12:20 | 44.00294 | -39.86115 | 44076 ft | 514 kts | 268° |
| 2026-05-01 12:20 | 44.00086 | -39.96022 | 44076 ft | 514 kts | 268° |
| 2026-05-01 12:21 | 44.00222 | -40.05868 | 44100 ft | 513 kts | 274° |
| 2026-05-01 12:21 | 44.00675 | -40.15730 | 44081 ft | 515 kts | 273° |
| 2026-05-01 12:22 | 44.01093 | -40.25637 | 44067 ft | 515 kts | 273° |
| 2026-05-01 12:22 | 44.01499 | -40.35535 | 44069 ft | 515 kts | 273° |
| 2026-05-01 12:23 | 44.01895 | -40.45409 | 44073 ft | 515 kts | 273° |
| 2026-05-01 12:23 | 44.02284 | -40.55311 | 44058 ft | 515 kts | 273° |
| 2026-05-01 12:24 | 44.02665 | -40.65211 | 44068 ft | 515 kts | 272° |
| 2026-05-01 12:24 | 44.03036 | -40.75086 | 44064 ft | 515 kts | 272° |
| 2026-05-01 12:25 | 44.03576 | -40.89888 | 44054 ft | 515 kts | 272° |
| 2026-05-01 12:26 | 44.03927 | -40.99808 | 44048 ft | 515 kts | 272° |
| 2026-05-01 12:26 | 44.04436 | -41.14644 | 44051 ft | 515 kts | 273° |
| 2026-05-01 12:27 | 44.04926 | -41.29475 | 44057 ft | 509 kts | 273° |
| 2026-05-01 12:28 | 44.05387 | -41.44030 | 44047 ft | 504 kts | 273° |
| 2026-05-01 12:29 | 44.05830 | -41.58562 | 44046 ft | 505 kts | 273° |
| 2026-05-01 12:29 | 44.06256 | -41.73172 | 44050 ft | 505 kts | 272° |
| 2026-05-01 12:30 | 44.06661 | -41.87698 | 44057 ft | 506 kts | 272° |
| 2026-05-01 12:31 | 44.06923 | -41.97448 | 44052 ft | 506 kts | 272° |
| 2026-05-01 12:31 | 44.07175 | -42.07164 | 44049 ft | 506 kts | 272° |
| 2026-05-01 12:32 | 44.07421 | -42.16938 | 44056 ft | 506 kts | 272° |
| 2026-05-01 12:32 | 44.07771 | -42.31478 | 44050 ft | 505 kts | 272° |
| 2026-05-01 12:33 | 44.07996 | -42.41244 | 44057 ft | 506 kts | 272° |
| 2026-05-01 12:33 | 44.08210 | -42.50938 | 44054 ft | 505 kts | 272° |
| 2026-05-01 12:34 | 44.08418 | -42.60673 | 44054 ft | 505 kts | 272° |
| 2026-05-01 12:34 | 44.08618 | -42.70456 | 44056 ft | 510 kts | 271° |
| 2026-05-01 12:35 | 44.08811 | -42.80302 | 44057 ft | 512 kts | 271° |
| 2026-05-01 12:35 | 44.08995 | -42.90111 | 44058 ft | 511 kts | 271° |
| 2026-05-01 12:36 | 44.09171 | -42.99959 | 44051 ft | 511 kts | 271° |
| 2026-05-01 12:36 | 44.09339 | -43.09820 | 44052 ft | 511 kts | 271° |
| 2026-05-01 12:37 | 44.09498 | -43.19642 | 44051 ft | 511 kts | 271° |
| 2026-05-01 12:37 | 44.09648 | -43.29470 | 44049 ft | 511 kts | 271° |
| 2026-05-01 12:38 | 44.09790 | -43.39288 | 44044 ft | 510 kts | 271° |
| 2026-05-01 12:38 | 44.09923 | -43.49095 | 44043 ft | 510 kts | 271° |
| 2026-05-01 12:39 | 44.10049 | -43.58917 | 44050 ft | 510 kts | 271° |
| 2026-05-01 12:39 | 44.10165 | -43.68765 | 44041 ft | 510 kts | 271° |
| 2026-05-01 12:40 | 44.10274 | -43.78588 | 44040 ft | 510 kts | 271° |
| 2026-05-01 12:40 | 44.10374 | -43.88414 | 44035 ft | 509 kts | 271° |
| 2026-05-01 12:41 | 44.10464 | -43.98192 | 44035 ft | 509 kts | 271° |
| 2026-05-01 12:41 | 44.10548 | -44.08017 | 44034 ft | 509 kts | 271° |
| 2026-05-01 12:42 | 44.10622 | -44.17808 | 44041 ft | 509 kts | 271° |
| 2026-05-01 12:42 | 44.10688 | -44.27574 | 44042 ft | 509 kts | 271° |
| 2026-05-01 12:43 | 44.10745 | -44.37363 | 44035 ft | 509 kts | 271° |
| 2026-05-01 12:43 | 44.10795 | -44.47176 | 44033 ft | 509 kts | 271° |
| 2026-05-01 12:44 | 44.10836 | -44.56959 | 44042 ft | 509 kts | 271° |
| 2026-05-01 12:45 | 44.10892 | -44.76566 | 44033 ft | 508 kts | 270° |
| 2026-05-01 12:45 | 44.10908 | -44.86344 | 44034 ft | 508 kts | 270° |
| 2026-05-01 12:46 | 44.10916 | -44.96112 | 44039 ft | 508 kts | 270° |
| 2026-05-01 12:46 | 44.10915 | -45.05890 | 44039 ft | 508 kts | 270° |
| 2026-05-01 12:47 | 44.10905 | -45.15690 | 44038 ft | 508 kts | 270° |
| 2026-05-01 12:47 | 44.10888 | -45.25489 | 44030 ft | 508 kts | 270° |
| 2026-05-01 12:48 | 44.10862 | -45.35266 | 44031 ft | 507 kts | 270° |
| 2026-05-01 12:48 | 44.10828 | -45.44989 | 44027 ft | 506 kts | 270° |
| 2026-05-01 12:49 | 44.10785 | -45.54762 | 44025 ft | 506 kts | 270° |
| 2026-05-01 12:49 | 44.10735 | -45.64481 | 44022 ft | 506 kts | 270° |
| 2026-05-01 12:50 | 44.10676 | -45.74216 | 44017 ft | 505 kts | 270° |
| 2026-05-01 12:50 | 44.10609 | -45.83946 | 44019 ft | 505 kts | 270° |
| 2026-05-01 12:51 | 44.10533 | -45.93678 | 44018 ft | 504 kts | 270° |
| 2026-05-01 12:52 | 44.10405 | -46.08216 | 44018 ft | 505 kts | 270° |
| 2026-05-01 12:52 | 44.10258 | -46.22850 | 44014 ft | 505 kts | 270° |
| 2026-05-01 12:53 | 44.10092 | -46.37400 | 44019 ft | 505 kts | 270° |
| 2026-05-01 12:54 | 44.09971 | -46.47192 | 44017 ft | 506 kts | 270° |
| 2026-05-01 12:54 | 44.09774 | -46.61824 | 44021 ft | 506 kts | 270° |
| 2026-05-01 12:55 | 44.09558 | -46.76442 | 44022 ft | 507 kts | 269° |
| 2026-05-01 12:56 | 44.09404 | -46.86197 | 44016 ft | 507 kts | 269° |
| 2026-05-01 12:56 | 44.09241 | -46.95974 | 44020 ft | 508 kts | 269° |
| 2026-05-01 12:57 | 44.09069 | -47.05776 | 44019 ft | 508 kts | 269° |
| 2026-05-01 12:57 | 44.08796 | -47.20464 | 44023 ft | 508 kts | 269° |
| 2026-05-01 12:58 | 44.08604 | -47.30199 | 44017 ft | 508 kts | 269° |
| 2026-05-01 12:59 | 44.08299 | -47.44901 | 44024 ft | 508 kts | 269° |
| 2026-05-01 12:59 | 44.07977 | -47.59571 | 44028 ft | 508 kts | 269° |
| 2026-05-01 13:00 | 44.07635 | -47.74231 | 44029 ft | 509 kts | 269° |
| 2026-05-01 13:01 | 44.07273 | -47.88953 | 44026 ft | 509 kts | 269° |
| 2026-05-01 13:02 | 44.06893 | -48.03656 | 44024 ft | 510 kts | 269° |
| 2026-05-01 13:07 | 44.03544 | -49.10976 | 44049 ft | 507 kts | 268° |
| 2026-05-01 13:08 | 44.03189 | -49.20721 | 44050 ft | 508 kts | 268° |
| 2026-05-01 13:08 | 44.02826 | -49.30500 | 44041 ft | 508 kts | 268° |
| 2026-05-01 13:09 | 44.02455 | -49.40251 | 44041 ft | 508 kts | 268° |
| 2026-05-01 13:09 | 44.02076 | -49.49995 | 44049 ft | 508 kts | 268° |
| 2026-05-01 13:10 | 44.01688 | -49.59748 | 44041 ft | 508 kts | 268° |
| 2026-05-01 13:10 | 44.01293 | -49.69482 | 44045 ft | 508 kts | 267° |
| 2026-05-01 13:11 | 44.00887 | -49.79267 | 44045 ft | 508 kts | 267° |
| 2026-05-01 13:11 | 44.00473 | -49.89043 | 44051 ft | 509 kts | 267° |
| 2026-05-01 13:12 | 44.00048 | -49.98783 | 44049 ft | 509 kts | 266° |
| 2026-05-01 13:12 | 43.99528 | -50.08532 | 44053 ft | 509 kts | 266° |
| 2026-05-01 13:13 | 43.98980 | -50.18231 | 44051 ft | 509 kts | 266° |
| 2026-05-01 13:13 | 43.98419 | -50.28035 | 44051 ft | 508 kts | 266° |
| 2026-05-01 13:14 | 43.97856 | -50.37734 | 44060 ft | 507 kts | 266° |
| 2026-05-01 13:14 | 43.97282 | -50.47470 | 44064 ft | 507 kts | 266° |
| 2026-05-01 13:15 | 43.96703 | -50.57162 | 44063 ft | 507 kts | 266° |
| 2026-05-01 13:15 | 43.96117 | -50.66840 | 44073 ft | 507 kts | 265° |
| 2026-05-01 13:16 | 43.95518 | -50.76583 | 44066 ft | 506 kts | 265° |
| 2026-05-01 13:16 | 43.94916 | -50.86241 | 44072 ft | 506 kts | 265° |
| 2026-05-01 13:17 | 43.93686 | -51.05573 | 44075 ft | 505 kts | 265° |
| 2026-05-01 13:18 | 43.92742 | -51.20063 | 44081 ft | 505 kts | 265° |
| 2026-05-01 13:18 | 43.92104 | -51.29713 | 44074 ft | 504 kts | 265° |
| 2026-05-01 13:19 | 43.91455 | -51.39395 | 44071 ft | 504 kts | 265° |
| 2026-05-01 13:20 | 43.90473 | -51.53810 | 44081 ft | 503 kts | 265° |
| 2026-05-01 13:20 | 43.89807 | -51.63426 | 44072 ft | 503 kts | 265° |
| 2026-05-01 13:21 | 43.88794 | -51.77855 | 44075 ft | 504 kts | 265° |
| 2026-05-01 13:21 | 43.88109 | -51.87464 | 44071 ft | 503 kts | 265° |
| 2026-05-01 13:22 | 43.87416 | -51.97063 | 44064 ft | 503 kts | 265° |
| 2026-05-01 13:22 | 43.86720 | -52.06596 | 44068 ft | 502 kts | 265° |
| 2026-05-01 13:23 | 43.86010 | -52.16207 | 44071 ft | 503 kts | 265° |
| 2026-05-01 13:23 | 43.85292 | -52.25818 | 44065 ft | 503 kts | 265° |
| 2026-05-01 13:24 | 43.84566 | -52.35423 | 44067 ft | 503 kts | 265° |
| 2026-05-01 13:25 | 43.83467 | -52.49763 | 44048 ft | 503 kts | 265° |
| 2026-05-01 13:25 | 43.82720 | -52.59374 | 44051 ft | 503 kts | 265° |
| 2026-05-01 13:26 | 43.81968 | -52.68942 | 44053 ft | 504 kts | 264° |
| 2026-05-01 13:26 | 43.81204 | -52.78566 | 44057 ft | 504 kts | 264° |
| 2026-05-01 13:27 | 43.80437 | -52.88119 | 44050 ft | 504 kts | 264° |
| 2026-05-01 13:27 | 43.79265 | -53.02528 | 44051 ft | 503 kts | 264° |
| 2026-05-01 13:28 | 43.78075 | -53.16921 | 44042 ft | 502 kts | 264° |
| 2026-05-01 13:29 | 43.76469 | -53.36003 | 44053 ft | 502 kts | 264° |
| 2026-05-01 13:31 | 43.74007 | -53.64542 | 44048 ft | 500 kts | 264° |
| 2026-05-01 13:32 | 43.71900 | -53.88312 | 44051 ft | 499 kts | 263° |
| 2026-05-01 13:33 | 43.69757 | -54.11930 | 44050 ft | 498 kts | 263° |
| 2026-05-01 13:34 | 43.68009 | -54.30793 | 44037 ft | 497 kts | 263° |
| 2026-05-01 13:35 | 43.66674 | -54.44971 | 44042 ft | 497 kts | 263° |
| 2026-05-01 13:36 | 43.65326 | -54.59104 | 44039 ft | 496 kts | 263° |
| 2026-05-01 13:36 | 43.63962 | -54.73200 | 44038 ft | 497 kts | 262° |
| 2026-05-01 13:37 | 43.63044 | -54.82594 | 44050 ft | 496 kts | 262° |
| 2026-05-01 13:37 | 43.62119 | -54.91973 | 44046 ft | 495 kts | 262° |
| 2026-05-01 13:38 | 43.60719 | -55.06022 | 44034 ft | 495 kts | 262° |
| 2026-05-01 13:39 | 43.59778 | -55.15360 | 44040 ft | 495 kts | 262° |
| 2026-05-01 13:39 | 43.58822 | -55.24773 | 44032 ft | 495 kts | 262° |
| 2026-05-01 13:40 | 43.57868 | -55.34083 | 44037 ft | 495 kts | 262° |
| 2026-05-01 13:40 | 43.56898 | -55.43479 | 44026 ft | 495 kts | 262° |
| 2026-05-01 13:41 | 43.55928 | -55.52789 | 44020 ft | 494 kts | 262° |
| 2026-05-01 13:41 | 43.54946 | -55.62149 | 44020 ft | 494 kts | 262° |
| 2026-05-01 13:42 | 43.53960 | -55.71467 | 44020 ft | 494 kts | 261° |
| 2026-05-01 13:42 | 43.52964 | -55.80807 | 44013 ft | 494 kts | 261° |
| 2026-05-01 13:43 | 43.51959 | -55.90154 | 44009 ft | 494 kts | 261° |
| 2026-05-01 13:43 | 43.50952 | -55.99439 | 44002 ft | 494 kts | 261° |
| 2026-05-01 13:44 | 43.49939 | -56.08720 | 44010 ft | 494 kts | 261° |
| 2026-05-01 13:44 | 43.48910 | -56.18070 | 44014 ft | 494 kts | 261° |
| 2026-05-01 13:45 | 43.47879 | -56.27360 | 44013 ft | 494 kts | 261° |
| 2026-05-01 13:45 | 43.46842 | -56.36646 | 44004 ft | 494 kts | 261° |
| 2026-05-01 13:46 | 43.45793 | -56.45956 | 44004 ft | 494 kts | 261° |
| 2026-05-01 13:46 | 43.44738 | -56.55261 | 43998 ft | 493 kts | 261° |
| 2026-05-01 13:47 | 43.43681 | -56.64508 | 43978 ft | 493 kts | 261° |
| 2026-05-01 13:47 | 43.42612 | -56.73791 | 43996 ft | 494 kts | 261° |
| 2026-05-01 13:48 | 43.41531 | -56.83114 | 43991 ft | 496 kts | 261° |
| 2026-05-01 13:48 | 43.40436 | -56.92482 | 44046 ft | 499 kts | 261° |
| 2026-05-01 13:49 | 43.39333 | -57.01846 | 44151 ft | 500 kts | 261° |
| 2026-05-01 13:49 | 43.38217 | -57.11259 | 44269 ft | 500 kts | 261° |
| 2026-05-01 13:50 | 43.37099 | -57.20618 | 44381 ft | 500 kts | 261° |
| 2026-05-01 13:50 | 43.35970 | -57.30000 | 44505 ft | 499 kts | 261° |
| 2026-05-01 13:51 | 43.34837 | -57.39362 | 44621 ft | 499 kts | 261° |
| 2026-05-01 13:51 | 43.33686 | -57.48786 | 44681 ft | 500 kts | 261° |
| 2026-05-01 13:52 | 43.32534 | -57.58161 | 44787 ft | 499 kts | 261° |
| 2026-05-01 13:52 | 43.31374 | -57.67532 | 44879 ft | 498 kts | 260° |
| 2026-05-01 13:53 | 43.30212 | -57.76861 | 44949 ft | 499 kts | 259° |
| 2026-05-01 13:53 | 43.28455 | -57.90836 | 45062 ft | 499 kts | 260° |
| 2026-05-01 13:54 | 43.27271 | -58.00183 | 45112 ft | 499 kts | 260° |
| 2026-05-01 13:54 | 43.26083 | -58.09490 | 45194 ft | 498 kts | 259° |
| 2026-05-01 13:55 | 43.24882 | -58.18827 | 45233 ft | 498 kts | 259° |
| 2026-05-01 13:55 | 43.23682 | -58.28116 | 45308 ft | 497 kts | 259° |
| 2026-05-01 13:56 | 43.22467 | -58.37438 | 45357 ft | 497 kts | 259° |
| 2026-05-01 13:56 | 43.21251 | -58.46715 | 45398 ft | 498 kts | 259° |
| 2026-05-01 13:57 | 43.20030 | -58.55969 | 45461 ft | 497 kts | 259° |
| 2026-05-01 13:57 | 43.18802 | -58.65218 | 45475 ft | 497 kts | 259° |
| 2026-05-01 13:58 | 43.17557 | -58.74533 | 45549 ft | 496 kts | 259° |
| 2026-05-01 13:58 | 43.16314 | -58.83775 | 45594 ft | 496 kts | 259° |
| 2026-05-01 13:59 | 43.15060 | -58.93035 | 45642 ft | 495 kts | 258° |
| 2026-05-01 13:59 | 43.13803 | -59.02262 | 45666 ft | 496 kts | 258° |
| 2026-05-01 14:00 | 43.12534 | -59.11512 | 45692 ft | 496 kts | 258° |
| 2026-05-01 14:00 | 43.11262 | -59.20738 | 45701 ft | 496 kts | 258° |
| 2026-05-01 14:01 | 43.09983 | -59.29946 | 45730 ft | 495 kts | 258° |
| 2026-05-01 14:01 | 43.08701 | -59.39125 | 45724 ft | 495 kts | 258° |
| 2026-05-01 14:02 | 43.07400 | -59.48384 | 45763 ft | 494 kts | 258° |
| 2026-05-01 14:02 | 43.06103 | -59.57556 | 45769 ft | 495 kts | 258° |
| 2026-05-01 14:03 | 43.04789 | -59.66785 | 45777 ft | 495 kts | 258° |
| 2026-05-01 14:03 | 43.03479 | -59.75943 | 45796 ft | 495 kts | 258° |
| 2026-05-01 14:04 | 43.02154 | -59.85147 | 45794 ft | 495 kts | 258° |
| 2026-05-01 14:04 | 43.01047 | -59.92793 | 45810 ft | 495 kts | 258° |
| 2026-05-01 14:05 | 42.99725 | -60.03590 | 45806 ft | 495 kts | 269° |
| 2026-05-01 14:05 | 42.99692 | -60.12888 | 45831 ft | 494 kts | 267° |
| 2026-05-01 14:06 | 42.99493 | -60.22261 | 45826 ft | 496 kts | 267° |
| 2026-05-01 14:06 | 42.99268 | -60.31679 | 45840 ft | 496 kts | 267° |
| 2026-05-01 14:07 | 42.99036 | -60.41034 | 45823 ft | 496 kts | 267° |
| 2026-05-01 14:08 | 42.98672 | -60.55097 | 45805 ft | 496 kts | 267° |
| 2026-05-01 14:08 | 42.98419 | -60.64498 | 45801 ft | 496 kts | 267° |
| 2026-05-01 14:09 | 42.98159 | -60.73866 | 45793 ft | 496 kts | 266° |
| 2026-05-01 14:09 | 42.97892 | -60.83217 | 45786 ft | 497 kts | 266° |
| 2026-05-01 14:10 | 42.97616 | -60.92623 | 45797 ft | 497 kts | 266° |
| 2026-05-01 14:10 | 42.97333 | -61.01995 | 45783 ft | 497 kts | 266° |
| 2026-05-01 14:11 | 42.97043 | -61.11359 | 45778 ft | 497 kts | 266° |
| 2026-05-01 14:11 | 42.96592 | -61.25445 | 45780 ft | 496 kts | 266° |
| 2026-05-01 14:12 | 42.96281 | -61.34826 | 45770 ft | 497 kts | 266° |
| 2026-05-01 14:12 | 42.95964 | -61.44217 | 45760 ft | 496 kts | 266° |
| 2026-05-01 14:13 | 42.95694 | -61.51997 | 45767 ft | 495 kts | 266° |
| 2026-05-01 14:13 | 42.95307 | -61.62909 | 45755 ft | 495 kts | 266° |
| 2026-05-01 14:14 | 42.94967 | -61.72271 | 45743 ft | 495 kts | 265° |
| 2026-05-01 14:14 | 42.94622 | -61.81571 | 45741 ft | 494 kts | 265° |
| 2026-05-01 14:15 | 42.94266 | -61.90940 | 45760 ft | 494 kts | 265° |
| 2026-05-01 14:15 | 42.93905 | -62.00254 | 45747 ft | 494 kts | 265° |
| 2026-05-01 14:16 | 42.93538 | -62.09515 | 45736 ft | 493 kts | 265° |
| 2026-05-01 14:16 | 42.93162 | -62.18825 | 45731 ft | 494 kts | 265° |
| 2026-05-01 14:17 | 42.92776 | -62.28193 | 45718 ft | 494 kts | 265° |
| 2026-05-01 14:17 | 42.92384 | -62.37514 | 45720 ft | 495 kts | 265° |
| 2026-05-01 14:18 | 42.91983 | -62.46854 | 45708 ft | 496 kts | 265° |
| 2026-05-01 14:18 | 42.91645 | -62.54591 | 45702 ft | 496 kts | 265° |
| 2026-05-01 14:19 | 42.91158 | -62.65566 | 45697 ft | 497 kts | 264° |
| 2026-05-01 14:19 | 42.90734 | -62.74908 | 45697 ft | 497 kts | 264° |
| 2026-05-01 14:20 | 42.90082 | -62.88994 | 45675 ft | 494 kts | 264° |
| 2026-05-01 14:21 | 42.89646 | -62.98206 | 45676 ft | 488 kts | 264° |
| 2026-05-01 14:21 | 42.89204 | -63.07376 | 45683 ft | 488 kts | 264° |
| 2026-05-01 14:22 | 42.88526 | -63.21162 | 45670 ft | 489 kts | 264° |
| 2026-05-01 14:22 | 42.88063 | -63.30390 | 45673 ft | 490 kts | 264° |
| 2026-05-01 14:23 | 42.87592 | -63.39624 | 45674 ft | 488 kts | 264° |
| 2026-05-01 14:23 | 42.87117 | -63.48782 | 45675 ft | 489 kts | 264° |
| 2026-05-01 14:24 | 42.86631 | -63.58023 | 45660 ft | 489 kts | 264° |
| 2026-05-01 14:24 | 42.86142 | -63.67175 | 45666 ft | 489 kts | 263° |
| 2026-05-01 14:25 | 42.85643 | -63.76374 | 45664 ft | 488 kts | 263° |
| 2026-05-01 14:25 | 42.85135 | -63.85608 | 45664 ft | 488 kts | 263° |
| 2026-05-01 14:26 | 42.84362 | -63.99376 | 45663 ft | 489 kts | 263° |
| 2026-05-01 14:27 | 42.83840 | -64.08549 | 45654 ft | 489 kts | 263° |
| 2026-05-01 14:27 | 42.83304 | -64.17790 | 45659 ft | 489 kts | 263° |
| 2026-05-01 14:28 | 42.82496 | -64.31524 | 45655 ft | 488 kts | 263° |
| 2026-05-01 14:28 | 42.81942 | -64.40765 | 45655 ft | 490 kts | 263° |
| 2026-05-01 14:29 | 42.81384 | -64.49950 | 45645 ft | 490 kts | 263° |
| 2026-05-01 14:30 | 42.80241 | -64.68404 | 45654 ft | 489 kts | 263° |
| 2026-05-01 14:31 | 42.79368 | -64.82182 | 45646 ft | 490 kts | 263° |
| 2026-05-01 14:31 | 42.78777 | -64.91355 | 45647 ft | 489 kts | 263° |
| 2026-05-01 14:32 | 42.78179 | -65.00537 | 45648 ft | 491 kts | 263° |
| 2026-05-01 14:32 | 42.77571 | -65.09748 | 45657 ft | 490 kts | 263° |
| 2026-05-01 14:33 | 42.76953 | -65.19003 | 45652 ft | 489 kts | 263° |
| 2026-05-01 14:33 | 42.76333 | -65.28174 | 45640 ft | 489 kts | 263° |
| 2026-05-01 14:34 | 42.75705 | -65.37344 | 45659 ft | 490 kts | 263° |
| 2026-05-01 14:34 | 42.75070 | -65.46508 | 45652 ft | 489 kts | 263° |
| 2026-05-01 14:35 | 42.74426 | -65.55711 | 45660 ft | 489 kts | 263° |
| 2026-05-01 14:35 | 42.73779 | -65.64832 | 45659 ft | 489 kts | 263° |
| 2026-05-01 14:36 | 42.73119 | -65.74034 | 45663 ft | 488 kts | 262° |
| 2026-05-01 14:36 | 42.72454 | -65.83210 | 45665 ft | 488 kts | 262° |
| 2026-05-01 14:37 | 42.71782 | -65.92365 | 45662 ft | 489 kts | 262° |
| 2026-05-01 14:37 | 42.71105 | -66.01511 | 45662 ft | 489 kts | 262° |
| 2026-05-01 14:38 | 42.70420 | -66.10645 | 45666 ft | 488 kts | 262° |
| 2026-05-01 14:38 | 42.69729 | -66.19765 | 45662 ft | 488 kts | 262° |
| 2026-05-01 14:39 | 42.69029 | -66.28909 | 45663 ft | 488 kts | 262° |
| 2026-05-01 14:39 | 42.68322 | -66.38046 | 45668 ft | 488 kts | 263° |
| 2026-05-01 14:40 | 42.67608 | -66.47177 | 45667 ft | 487 kts | 263° |
| 2026-05-01 14:40 | 42.66886 | -66.56316 | 45666 ft | 488 kts | 263° |
| 2026-05-01 14:41 | 42.66157 | -66.65447 | 45661 ft | 488 kts | 262° |
| 2026-05-01 14:41 | 42.65419 | -66.74604 | 45667 ft | 487 kts | 262° |
| 2026-05-01 14:42 | 42.64679 | -66.83695 | 45669 ft | 487 kts | 262° |
| 2026-05-01 14:42 | 42.63929 | -66.92813 | 45670 ft | 488 kts | 262° |
| 2026-05-01 14:43 | 42.63245 | -67.01953 | 45646 ft | 488 kts | 268° |
| 2026-05-01 14:43 | 42.63586 | -67.11125 | 45662 ft | 489 kts | 270° |
| 2026-05-01 14:44 | 42.63822 | -67.20323 | 45666 ft | 490 kts | 270° |
| 2026-05-01 14:44 | 42.64135 | -67.34107 | 45674 ft | 489 kts | 270° |
| 2026-05-01 14:45 | 42.64432 | -67.47977 | 45671 ft | 495 kts | 270° |
| 2026-05-01 14:46 | 42.64621 | -67.57277 | 45677 ft | 496 kts | 270° |
| 2026-05-01 14:46 | 42.64892 | -67.71271 | 45674 ft | 496 kts | 270° |
| 2026-05-01 14:47 | 42.64962 | -67.80571 | 45685 ft | 495 kts | 270° |
| 2026-05-01 14:48 | 42.65517 | -67.94544 | 45672 ft | 497 kts | 271° |
| 2026-05-01 14:48 | 42.66086 | -68.08568 | 45686 ft | 496 kts | 271° |
| 2026-05-01 14:49 | 42.66815 | -68.27159 | 45686 ft | 496 kts | 271° |
| 2026-05-01 14:50 | 42.67515 | -68.45824 | 45692 ft | 496 kts | 271° |
| 2026-05-01 14:51 | 42.68021 | -68.59799 | 45801 ft | 495 kts | 271° |
| 2026-05-01 14:52 | 42.68509 | -68.73789 | 45795 ft | 496 kts | 271° |
| 2026-05-01 14:53 | 42.68977 | -68.87684 | 45797 ft | 495 kts | 271° |
| 2026-05-01 14:53 | 42.69282 | -68.97011 | 45802 ft | 494 kts | 271° |
| 2026-05-01 14:54 | 42.69581 | -69.06390 | 45795 ft | 494 kts | 271° |
| 2026-05-01 14:54 | 42.69867 | -69.15639 | 45798 ft | 495 kts | 271° |
| 2026-05-01 14:55 | 42.70149 | -69.24946 | 45809 ft | 494 kts | 271° |
| 2026-05-01 14:55 | 42.70422 | -69.34233 | 45803 ft | 494 kts | 271° |
| 2026-05-01 14:56 | 42.70688 | -69.43528 | 45805 ft | 493 kts | 271° |
| 2026-05-01 14:56 | 42.70948 | -69.52870 | 45812 ft | 493 kts | 271° |
| 2026-05-01 14:57 | 42.71198 | -69.62131 | 45814 ft | 493 kts | 271° |
| 2026-05-01 14:57 | 42.71560 | -69.76054 | 45819 ft | 493 kts | 270° |
| 2026-05-01 14:58 | 42.71791 | -69.85349 | 45818 ft | 493 kts | 270° |
| 2026-05-01 14:58 | 42.72017 | -69.94666 | 45813 ft | 493 kts | 270° |
| 2026-05-01 14:59 | 42.72232 | -70.03913 | 45820 ft | 493 kts | 270° |
| 2026-05-01 14:59 | 42.72442 | -70.13203 | 45818 ft | 493 kts | 270° |
| 2026-05-01 15:00 | 42.72740 | -70.27062 | 45826 ft | 492 kts | 270° |
| 2026-05-01 15:01 | 42.72931 | -70.36363 | 45824 ft | 493 kts | 270° |
| 2026-05-01 15:01 | 42.73114 | -70.45627 | 45828 ft | 491 kts | 270° |
| 2026-05-01 15:02 | 42.73289 | -70.54915 | 45819 ft | 492 kts | 270° |
| 2026-05-01 15:02 | 42.73456 | -70.64113 | 45817 ft | 492 kts | 270° |
| 2026-05-01 15:03 | 42.73616 | -70.73409 | 45828 ft | 492 kts | 269° |
| 2026-05-01 15:03 | 42.73769 | -70.82690 | 45825 ft | 491 kts | 269° |
| 2026-05-01 15:04 | 42.73914 | -70.91942 | 45832 ft | 491 kts | 269° |
| 2026-05-01 15:04 | 42.74051 | -71.01178 | 45834 ft | 491 kts | 269° |
| 2026-05-01 15:05 | 42.74182 | -71.10440 | 45845 ft | 491 kts | 269° |
| 2026-05-01 15:05 | 42.74305 | -71.19735 | 45835 ft | 490 kts | 269° |
| 2026-05-01 15:06 | 42.74421 | -71.29000 | 45841 ft | 491 kts | 269° |
| 2026-05-01 15:06 | 42.74528 | -71.38251 | 45848 ft | 491 kts | 269° |
| 2026-05-01 15:07 | 42.74629 | -71.47485 | 45849 ft | 491 kts | 269° |
| 2026-05-01 15:07 | 42.74722 | -71.56791 | 45858 ft | 491 kts | 269° |
| 2026-05-01 15:08 | 42.74807 | -71.66057 | 45856 ft | 490 kts | 269° |
| 2026-05-01 15:08 | 42.74885 | -71.75303 | 45865 ft | 490 kts | 269° |
| 2026-05-01 15:09 | 42.74956 | -71.84596 | 45858 ft | 490 kts | 268° |
| 2026-05-01 15:09 | 42.75018 | -71.93780 | 45851 ft | 491 kts | 268° |
| 2026-05-01 15:10 | 42.75074 | -72.03047 | 45870 ft | 490 kts | 268° |
| 2026-05-01 15:10 | 42.75143 | -72.16891 | 45866 ft | 490 kts | 268° |
| 2026-05-01 15:11 | 42.75196 | -72.30763 | 45870 ft | 490 kts | 268° |
| 2026-05-01 15:12 | 42.75221 | -72.39761 | 45873 ft | 490 kts | 269° |
| 2026-05-01 15:12 | 42.75245 | -72.53613 | 45870 ft | 490 kts | 269° |
| 2026-05-01 15:14 | 42.75251 | -72.76765 | 45868 ft | 490 kts | 268° |
| 2026-05-01 15:14 | 42.75230 | -72.90608 | 45847 ft | 490 kts | 268° |
| 2026-05-01 15:15 | 42.75179 | -73.09042 | 45866 ft | 490 kts | 268° |
| 2026-05-01 15:16 | 42.75097 | -73.27548 | 45896 ft | 489 kts | 268° |
| 2026-05-01 15:18 | 42.74953 | -73.50603 | 45865 ft | 488 kts | 268° |
| 2026-05-01 15:19 | 42.74805 | -73.69001 | 45895 ft | 487 kts | 268° |
| 2026-05-01 15:19 | 42.74716 | -73.82798 | 45903 ft | 486 kts | 272° |
| 2026-05-01 15:20 | 42.75579 | -73.96555 | 45908 ft | 488 kts | 273° |
| 2026-05-01 15:21 | 42.76108 | -74.05733 | 45904 ft | 487 kts | 273° |
| 2026-05-01 15:21 | 42.76629 | -74.14919 | 45917 ft | 487 kts | 273° |
| 2026-05-01 15:22 | 42.77393 | -74.28666 | 45907 ft | 487 kts | 273° |
| 2026-05-01 15:22 | 42.77893 | -74.37824 | 45912 ft | 488 kts | 273° |
| 2026-05-01 15:23 | 42.78386 | -74.46987 | 45907 ft | 488 kts | 273° |
| 2026-05-01 15:23 | 42.78875 | -74.56227 | 45874 ft | 488 kts | 272° |
| 2026-05-01 15:24 | 42.79352 | -74.65363 | 45917 ft | 488 kts | 272° |
| 2026-05-01 15:24 | 42.79825 | -74.74580 | 45932 ft | 489 kts | 272° |
| 2026-05-01 15:25 | 42.80293 | -74.83819 | 45915 ft | 488 kts | 272° |
| 2026-05-01 15:25 | 42.80751 | -74.93039 | 45911 ft | 488 kts | 272° |
| 2026-05-01 15:26 | 42.81199 | -75.02191 | 45930 ft | 488 kts | 272° |
| 2026-05-01 15:26 | 42.81645 | -75.11458 | 45928 ft | 489 kts | 272° |
| 2026-05-01 15:27 | 42.82081 | -75.20663 | 45928 ft | 489 kts | 272° |
| 2026-05-01 15:28 | 42.82721 | -75.34480 | 45933 ft | 489 kts | 272° |
| 2026-05-01 15:28 | 42.83141 | -75.43752 | 45936 ft | 490 kts | 272° |
| 2026-05-01 15:29 | 42.83754 | -75.57610 | 45934 ft | 491 kts | 272° |
| 2026-05-01 15:30 | 42.84550 | -75.76166 | 45929 ft | 491 kts | 271° |
| 2026-05-01 15:31 | 42.85683 | -76.04043 | 45950 ft | 492 kts | 271° |
| 2026-05-01 15:32 | 42.86397 | -76.22676 | 45946 ft | 493 kts | 271° |
| 2026-05-01 15:34 | 42.87407 | -76.50527 | 45935 ft | 492 kts | 271° |